Terminal Aerodrome Forecast
Issued by NWS Grand Forks, ND

Home | Current Version | Previous Version | Graphics & Text | Print | Product List | Glossary On
Versions: 1 2 3 4 5 6 7 8 9 10 11 12 13 14 15 16 17 18 19
996
FTUS43 KFGF 042336
TAFGFK
TAF
KGFK 042336Z 0500/0524 18006KT P6SM BKN120
     FM051200 28004KT P6SM BKN050
     FM051600 31006KT P6SM BKN050=

USA.gov is the U.S. government's official web portal to all federal, state and local government web resources and services.